createdAt,value
2023-04-09T00:01:02.244Z,29.35
2023-04-09T00:03:32.092Z,28.45
2023-04-09T00:06:00.333Z,28.15
2023-04-09T00:08:28.722Z,26.73
2023-04-09T00:10:56.868Z,29.58
2023-04-09T00:13:35.592Z,26.77
2023-04-09T00:16:07.746Z,27.67
2023-04-09T00:18:37.376Z,26.75
2023-04-09T00:21:05.736Z,27.63
2023-04-09T00:23:33.795Z,28.60
2023-04-09T00:26:02.117Z,25.20
2023-04-09T00:28:30.480Z,29.05
2023-04-09T00:30:58.598Z,26.63
2023-04-09T00:33:27.235Z,27.55
2023-04-09T00:35:56.833Z,27.50
2023-04-09T00:38:24.970Z,29.00
2023-04-09T00:40:53.244Z,28.73
2023-04-09T00:43:21.589Z,29.02
2023-04-09T00:45:49.794Z,32.47
2023-04-09T00:48:18.839Z,27.92
2023-04-09T00:50:46.954Z,27.52
2023-04-09T00:53:16.566Z,28.40
2023-04-09T00:55:44.763Z,29.02
2023-04-09T00:58:13.071Z,29.38
2023-04-09T01:00:41.439Z,30.00
2023-04-09T01:03:10.096Z,27.83
2023-04-09T01:05:45.059Z,29.08
2023-04-09T01:08:20.519Z,30.00
2023-04-09T01:10:54.137Z,30.17
2023-04-09T01:13:29.311Z,32.08
2023-04-09T01:15:59.274Z,31.95
2023-04-09T01:18:32.261Z,32.22
2023-04-09T01:21:04.271Z,34.65
2023-04-09T01:23:42.217Z,33.72
2023-04-09T01:26:20.263Z,34.40
2023-04-09T01:28:54.074Z,33.65
2023-04-09T01:31:28.208Z,32.30
2023-04-09T01:33:56.793Z,31.52
2023-04-09T01:36:26.527Z,34.10
2023-04-09T01:38:55.790Z,33.20
2023-04-09T01:41:24.552Z,33.28
2023-04-09T01:43:54.778Z,35.97
2023-04-09T01:46:23.898Z,34.05
2023-04-09T01:48:52.816Z,33.35
2023-04-09T01:51:21.224Z,35.22
2023-04-09T01:53:49.979Z,36.25
2023-04-09T01:56:18.091Z,32.10
2023-04-09T01:58:46.149Z,33.42
2023-04-09T02:01:21.152Z,36.13
2023-04-09T02:03:52.896Z,35.45
2023-04-09T02:06:27.133Z,39.28
2023-04-09T02:08:55.566Z,34.75
2023-04-09T02:11:26.039Z,42.97
2023-04-09T02:13:55.405Z,39.53
2023-04-09T02:16:25.073Z,35.78
2023-04-09T02:18:54.936Z,38.78
2023-04-09T02:21:23.803Z,35.78
2023-04-09T02:23:51.983Z,35.80
2023-04-09T02:26:20.147Z,35.03
2023-04-09T02:28:48.301Z,34.55
2023-04-09T02:31:16.594Z,36.60
2023-04-09T02:33:46.260Z,34.17
2023-04-09T02:36:15.186Z,32.72
2023-04-09T02:38:43.662Z,35.63
2023-04-09T02:41:11.861Z,36.22
2023-04-09T02:43:39.988Z,40.67
2023-04-09T02:46:08.555Z,32.90
2023-04-09T02:48:36.759Z,36.78
2023-04-09T02:51:08.393Z,30.63
2023-04-09T02:53:37.769Z,32.53
2023-04-09T02:56:06.635Z,37.78
2023-04-09T02:58:34.680Z,37.90
2023-04-09T03:01:02.764Z,35.40
2023-04-09T03:03:31.448Z,34.33
2023-04-09T03:05:59.675Z,30.48
2023-04-09T03:08:29.136Z,35.97
2023-04-09T03:10:57.241Z,36.10
2023-04-09T03:13:25.369Z,38.38
2023-04-09T03:15:54.083Z,34.42
2023-04-09T03:18:22.216Z,33.72
2023-04-09T03:20:50.256Z,32.97
2023-04-09T03:23:18.358Z,33.08
2023-04-09T03:25:47.826Z,32.83
2023-04-09T03:28:15.973Z,31.65
2023-04-09T03:30:44.056Z,35.72
2023-04-09T03:33:12.117Z,36.38
2023-04-09T03:35:40.223Z,31.15
2023-04-09T03:38:08.293Z,33.47
2023-04-09T03:40:36.547Z,33.47
2023-04-09T03:43:06.172Z,30.98
2023-04-09T03:45:34.269Z,34.80
2023-04-09T03:48:02.364Z,32.20
2023-04-09T03:50:30.518Z,32.55
2023-04-09T03:52:58.605Z,27.90
2023-04-09T03:55:27.069Z,30.42
2023-04-09T03:57:55.171Z,30.52
2023-04-09T04:00:24.642Z,29.17
2023-04-09T04:02:52.970Z,32.67
2023-04-09T04:05:23.641Z,32.58
2023-04-09T04:07:51.842Z,32.55
2023-04-09T04:10:20.248Z,35.47
2023-04-09T04:12:48.383Z,33.97
2023-04-09T04:15:16.502Z,34.30
2023-04-09T04:17:46.531Z,31.35
2023-04-09T04:20:14.929Z,30.50
2023-04-09T04:22:43.033Z,28.60
2023-04-09T04:25:11.850Z,30.52
2023-04-09T04:27:42.933Z,32.33
2023-04-09T04:30:11.362Z,31.10
2023-04-09T04:32:39.489Z,32.95
2023-04-09T04:35:10.023Z,35.28
2023-04-09T04:37:39.284Z,31.42
2023-04-09T04:40:08.798Z,30.85
2023-04-09T04:42:36.907Z,30.92
2023-04-09T04:45:05.478Z,32.63
2023-04-09T04:47:34.077Z,30.67
2023-04-09T04:50:02.410Z,30.50
2023-04-09T04:52:31.858Z,29.27
2023-04-09T04:55:00.386Z,31.08
2023-04-09T04:57:28.496Z,33.45
2023-04-09T04:59:56.541Z,31.95
2023-04-09T05:02:25.028Z,33.58
2023-04-09T05:04:53.272Z,24.02
2023-04-09T05:07:21.395Z,30.30
2023-04-09T05:09:50.863Z,32.08
2023-04-09T05:12:19.291Z,35.22
2023-04-09T05:14:47.377Z,31.90
2023-04-09T05:17:15.610Z,30.83
2023-04-09T05:19:43.683Z,30.95
2023-04-09T05:22:11.769Z,33.15
2023-04-09T05:24:39.855Z,33.25
2023-04-09T05:27:09.335Z,29.40
2023-04-09T05:29:37.374Z,28.90
2023-04-09T05:32:06.929Z,30.08
2023-04-09T05:34:35.014Z,29.65
2023-04-09T05:37:03.329Z,28.95
2023-04-09T05:39:31.425Z,30.70
2023-04-09T05:41:59.597Z,27.70
2023-04-09T05:44:29.059Z,26.27
2023-04-09T05:46:57.261Z,28.58
2023-04-09T05:49:25.509Z,29.35
2023-04-09T05:51:53.624Z,24.45
2023-04-09T05:54:21.691Z,27.23
2023-04-09T05:56:49.789Z,28.33
2023-04-09T05:59:18.435Z,28.40
2023-04-09T06:01:47.972Z,25.55
2023-04-09T06:04:16.251Z,26.77
2023-04-09T06:06:44.452Z,26.40
2023-04-09T06:09:12.567Z,25.70
2023-04-09T06:11:40.696Z,21.95
2023-04-09T06:14:08.749Z,25.42
2023-04-09T06:16:36.842Z,22.30
2023-04-09T06:19:06.310Z,24.50
2023-04-09T06:21:34.419Z,23.98
2023-04-09T06:24:02.491Z,23.42
2023-04-09T06:26:30.626Z,24.58
2023-04-09T06:28:58.674Z,21.58
2023-04-09T06:31:27.457Z,23.98
2023-04-09T06:33:55.909Z,18.73
2023-04-09T06:36:27.266Z,24.02
2023-04-09T06:38:55.453Z,24.05
2023-04-09T06:41:23.660Z,23.83
2023-04-09T06:43:51.957Z,22.45
2023-04-09T06:46:21.320Z,24.52
2023-04-09T06:48:49.422Z,25.63
2023-04-09T06:51:17.532Z,22.83
2023-04-09T06:53:48.210Z,21.73
2023-04-09T06:56:16.682Z,25.08
2023-04-09T06:58:44.738Z,23.88
2023-04-09T07:01:13.605Z,23.63
2023-04-09T07:03:41.887Z,20.38
2023-04-09T07:06:10.049Z,23.27
2023-04-09T07:08:38.116Z,21.80
2023-04-09T07:11:07.579Z,22.90
2023-04-09T07:13:36.127Z,22.92
2023-04-09T07:16:04.380Z,21.58
2023-04-09T07:18:32.622Z,22.40
2023-04-09T07:21:01.014Z,21.38
2023-04-09T07:23:29.105Z,21.50
2023-04-09T07:25:57.178Z,21.88
2023-04-09T07:28:27.164Z,20.67
2023-04-09T07:30:55.293Z,21.27
2023-04-09T07:33:23.408Z,21.48
2023-04-09T07:35:52.009Z,21.80
2023-04-09T07:38:21.506Z,23.77
2023-04-09T07:40:49.587Z,21.55
2023-04-09T07:43:18.396Z,23.88
2023-04-09T07:45:50.145Z,19.48
2023-04-09T07:48:18.273Z,23.02
2023-04-09T07:50:46.384Z,22.85
2023-04-09T07:53:14.560Z,21.80
2023-04-09T07:55:42.689Z,23.10
2023-04-09T07:58:10.758Z,22.92
2023-04-09T08:00:38.885Z,24.88
2023-04-09T08:03:08.498Z,23.58
2023-04-09T08:05:38.057Z,24.65
2023-04-09T08:08:06.745Z,24.65
2023-04-09T08:10:34.883Z,26.08
2023-04-09T08:13:02.945Z,23.02
2023-04-09T08:15:31.036Z,23.73
2023-04-09T08:17:59.574Z,24.45
2023-04-09T08:20:29.417Z,23.50
2023-04-09T08:22:57.623Z,23.20
2023-04-09T08:25:26.050Z,29.48
2023-04-09T08:27:54.259Z,23.55
2023-04-09T08:30:22.324Z,24.58
2023-04-09T08:32:50.441Z,23.58
2023-04-09T08:35:18.685Z,23.75
2023-04-09T08:37:48.695Z,23.42
2023-04-09T08:40:16.990Z,25.63
2023-04-09T08:42:46.463Z,23.80
2023-04-09T08:45:14.731Z,24.13
2023-04-09T08:47:43.636Z,25.95
2023-04-09T08:50:12.183Z,24.52
2023-04-09T08:52:40.725Z,24.52
2023-04-09T08:55:11.044Z,22.02
2023-04-09T08:57:39.510Z,24.92
2023-04-09T09:00:09.101Z,24.33
2023-04-09T09:02:38.679Z,23.05
2023-04-09T09:05:07.799Z,23.73
2023-04-09T09:07:35.983Z,24.02
2023-04-09T09:10:04.599Z,23.02
2023-04-09T09:12:35.744Z,21.83
2023-04-09T09:15:04.446Z,21.55
2023-04-09T09:17:32.589Z,22.15
2023-04-09T09:20:01.204Z,21.25
2023-04-09T09:22:29.262Z,20.73
2023-04-09T09:24:57.450Z,20.85
2023-04-09T09:27:39.619Z,17.73
2023-04-09T09:30:10.534Z,18.77
2023-04-09T09:32:39.201Z,19.35
2023-04-09T09:35:08.338Z,18.60
2023-04-09T09:37:36.385Z,17.23
2023-04-09T09:40:05.017Z,17.30
2023-04-09T09:42:33.130Z,17.65
2023-04-09T09:45:03.259Z,16.35
2023-04-09T09:47:31.520Z,15.48
2023-04-09T09:49:59.623Z,15.82
2023-04-09T09:52:27.865Z,15.57
2023-04-09T09:54:57.085Z,14.82
2023-04-09T09:57:27.109Z,15.93
2023-04-09T09:59:59.071Z,14.13
2023-04-09T10:02:32.980Z,13.98
2023-04-09T10:05:03.084Z,14.60
2023-04-09T10:07:32.015Z,15.40
2023-04-09T10:10:01.023Z,16.10
2023-04-09T10:12:29.347Z,16.45
2023-04-09T10:14:58.020Z,15.32
2023-04-09T10:17:26.531Z,14.50
2023-04-09T10:20:00.716Z,14.27
2023-04-09T10:22:29.138Z,14.90
2023-04-09T10:24:58.110Z,14.88
2023-04-09T10:27:28.397Z,14.27
2023-04-09T10:29:56.492Z,16.00
2023-04-09T10:32:26.683Z,14.13
2023-04-09T10:34:58.868Z,14.98
2023-04-09T10:37:28.059Z,14.40
2023-04-09T10:39:56.590Z,13.02
2023-04-09T10:42:27.382Z,13.02
2023-04-09T10:45:20.685Z,13.18
2023-04-09T10:47:51.965Z,13.10
2023-04-09T10:50:24.110Z,12.80
2023-04-09T10:52:54.605Z,13.30
2023-04-09T10:55:36.500Z,13.07
2023-04-09T10:58:05.595Z,12.20
2023-04-09T11:00:35.083Z,12.20
2023-04-09T11:03:24.183Z,12.90
2023-04-09T11:05:59.416Z,12.27
2023-04-09T11:08:30.209Z,11.82
2023-04-09T11:11:01.144Z,11.35
2023-04-09T11:13:30.419Z,12.07
2023-04-09T11:16:00.363Z,12.77
2023-04-09T11:18:30.281Z,11.73
2023-04-09T11:21:01.364Z,12.68
2023-04-09T11:23:30.354Z,12.65
2023-04-09T11:25:58.542Z,11.45
2023-04-09T11:28:27.882Z,12.32
2023-04-09T11:30:56.163Z,11.90
2023-04-09T11:33:24.269Z,12.60
2023-04-09T11:35:52.763Z,12.10
2023-04-09T11:38:22.270Z,12.35
2023-04-09T11:40:51.512Z,12.30
2023-04-09T11:43:21.069Z,11.57
2023-04-09T11:45:49.777Z,11.55
2023-04-09T11:48:19.608Z,10.90
2023-04-09T11:50:48.606Z,11.40
2023-04-09T11:53:22.587Z,11.43
2023-04-09T11:55:52.521Z,11.07
2023-04-09T11:58:23.821Z,11.30
2023-04-09T12:00:55.079Z,11.25
2023-04-09T12:03:29.325Z,11.23
2023-04-09T12:05:57.595Z,10.98
2023-04-09T12:08:29.458Z,10.70
2023-04-09T12:10:57.672Z,10.57
2023-04-09T12:13:33.898Z,11.35
2023-04-09T12:16:03.418Z,11.05
2023-04-09T12:18:31.565Z,10.90
2023-04-09T12:21:01.454Z,10.95
2023-04-09T12:23:31.472Z,11.52
2023-04-09T12:26:01.299Z,10.63
2023-04-09T12:28:29.844Z,10.75
2023-04-09T12:30:59.492Z,11.10
2023-04-09T12:33:27.775Z,10.82
2023-04-09T12:35:56.183Z,11.00
2023-04-09T12:38:24.331Z,10.93
2023-04-09T12:40:53.779Z,11.50
2023-04-09T12:43:21.819Z,10.45
2023-04-09T12:45:49.951Z,10.38
2023-04-09T12:48:18.064Z,10.52
2023-04-09T12:50:46.306Z,10.07
2023-04-09T12:53:14.406Z,10.02
2023-04-09T12:55:43.000Z,11.05
2023-04-09T12:58:12.504Z,10.88
2023-04-09T13:00:40.615Z,10.13
2023-04-09T13:03:09.191Z,9.35
2023-04-09T13:05:37.421Z,9.80
2023-04-09T13:08:05.731Z,9.40
2023-04-09T13:10:34.934Z,9.50
2023-04-09T13:13:03.461Z,9.73
2023-04-09T13:15:32.945Z,10.15
2023-04-09T13:18:03.725Z,10.40
2023-04-09T13:20:31.993Z,9.55
2023-04-09T13:23:00.295Z,9.35
2023-04-09T13:25:28.426Z,10.73
2023-04-09T13:27:56.549Z,9.88
2023-04-09T13:30:24.942Z,9.13
2023-04-09T13:32:54.413Z,9.40
2023-04-09T13:35:22.653Z,8.85
2023-04-09T13:37:50.869Z,9.55
2023-04-09T13:40:19.069Z,8.32
2023-04-09T13:42:47.131Z,8.18
2023-04-09T13:45:15.215Z,8.88
2023-04-09T13:47:43.423Z,8.60
2023-04-09T13:50:13.836Z,8.57
2023-04-09T13:52:41.908Z,9.18
2023-04-09T13:55:11.587Z,8.52
2023-04-09T13:57:39.668Z,8.18
2023-04-09T14:00:09.073Z,9.43
2023-04-09T14:02:37.252Z,9.02
2023-04-09T14:05:05.725Z,8.32
2023-04-09T14:07:35.418Z,9.95
2023-04-09T14:10:03.626Z,10.20
2023-04-09T14:12:31.712Z,10.25
2023-04-09T14:14:59.844Z,9.07
2023-04-09T14:17:28.259Z,9.40
2023-04-09T14:19:58.008Z,9.23
2023-04-09T14:22:26.566Z,10.05
2023-04-09T14:24:56.340Z,9.95
2023-04-09T14:27:24.414Z,10.15
2023-04-09T14:29:52.572Z,10.55
2023-04-09T14:32:20.903Z,10.30
2023-04-09T14:34:48.999Z,9.68
2023-04-09T14:37:17.270Z,10.02
2023-04-09T14:39:45.364Z,9.38
2023-04-09T14:42:14.828Z,9.88
2023-04-09T14:44:43.018Z,9.70
2023-04-09T14:47:11.166Z,10.05
2023-04-09T14:49:39.348Z,9.90
2023-04-09T14:52:07.548Z,9.48
2023-04-09T14:54:37.583Z,9.23
2023-04-09T14:57:05.763Z,9.57
2023-04-09T14:59:36.012Z,9.77
2023-04-09T15:02:04.445Z,8.77
2023-04-09T15:04:32.889Z,8.18
2023-04-09T15:07:01.044Z,8.88
2023-04-09T15:09:29.125Z,9.40
2023-04-09T15:11:57.917Z,8.23
2023-04-09T15:14:26.389Z,8.32
2023-04-09T15:16:56.015Z,8.45
2023-04-09T15:19:24.221Z,9.10
2023-04-09T15:21:52.278Z,9.35
2023-04-09T15:24:20.550Z,8.80
2023-04-09T15:26:49.781Z,8.25
2023-04-09T15:29:17.901Z,7.93
2023-04-09T15:31:46.118Z,8.88
2023-04-09T15:34:15.990Z,8.50
2023-04-09T15:36:44.141Z,7.25
2023-04-09T15:39:12.276Z,8.70
2023-04-09T15:41:40.754Z,8.38
2023-04-09T15:44:09.225Z,8.75
2023-04-09T15:46:38.524Z,8.30
2023-04-09T15:49:06.698Z,7.82
2023-04-09T15:51:36.203Z,8.43
2023-04-09T15:54:04.407Z,8.70
2023-04-09T15:56:32.541Z,8.30
2023-04-09T15:59:02.177Z,11.00
2023-04-09T16:01:30.654Z,9.98
2023-04-09T16:03:59.250Z,8.63
2023-04-09T16:06:27.441Z,8.30
2023-04-09T16:08:57.556Z,8.75
2023-04-09T16:11:26.041Z,10.38
2023-04-09T16:13:54.206Z,9.40
2023-04-09T16:16:22.297Z,10.20
2023-04-09T16:18:50.659Z,9.25
2023-04-09T16:21:18.799Z,8.25
2023-04-09T16:23:46.892Z,8.82
2023-04-09T16:26:16.450Z,8.07
2023-04-09T16:28:44.557Z,7.40
2023-04-09T16:31:12.616Z,7.82
2023-04-09T16:33:40.987Z,8.32
2023-04-09T16:36:09.266Z,9.35
2023-04-09T16:38:37.452Z,7.70
2023-04-09T16:41:06.928Z,7.25
2023-04-09T16:43:36.391Z,9.48
2023-04-09T16:46:06.611Z,8.38
2023-04-09T16:48:36.360Z,8.50
2023-04-09T16:51:04.692Z,9.35
2023-04-09T16:53:32.794Z,7.63
2023-04-09T16:56:00.911Z,8.10
2023-04-09T16:58:29.800Z,9.25
2023-04-09T17:00:59.299Z,9.68
2023-04-09T17:03:27.469Z,8.10
2023-04-09T17:05:57.155Z,8.02
2023-04-09T17:08:25.373Z,8.20
2023-04-09T17:11:01.444Z,7.78
2023-04-09T17:13:29.840Z,8.13
2023-04-09T17:15:59.552Z,8.30
2023-04-09T17:18:28.397Z,8.45
2023-04-09T17:20:56.614Z,7.70
2023-04-09T17:23:24.775Z,9.20
2023-04-09T17:25:53.046Z,10.05
2023-04-09T17:28:21.104Z,8.75
2023-04-09T17:30:49.295Z,8.90
2023-04-09T17:33:18.752Z,9.40
2023-04-09T17:35:46.846Z,11.40
2023-04-09T17:38:21.146Z,12.07
2023-04-09T17:40:49.405Z,11.50
2023-04-09T17:43:17.590Z,10.35
2023-04-09T17:45:45.754Z,16.10
2023-04-09T17:48:13.806Z,9.45
2023-04-09T17:50:43.245Z,9.57
2023-04-09T17:53:11.613Z,9.65
2023-04-09T17:55:39.766Z,8.85
2023-04-09T17:58:07.844Z,8.45
2023-04-09T18:00:35.947Z,8.10
2023-04-09T18:03:04.356Z,7.75
2023-04-09T18:05:32.828Z,9.48
2023-04-09T18:08:03.196Z,19.48
2023-04-09T18:10:31.364Z,15.75
2023-04-09T18:12:59.517Z,10.30
2023-04-09T18:15:27.841Z,7.80
2023-04-09T18:17:56.302Z,9.35
2023-04-09T18:20:24.670Z,9.35
2023-04-09T18:22:52.983Z,10.73
2023-04-09T18:25:23.371Z,10.85
2023-04-09T18:27:51.610Z,10.15
2023-04-09T18:30:19.898Z,8.95
2023-04-09T18:32:49.199Z,13.02
2023-04-09T18:35:17.489Z,10.23
2023-04-09T18:37:45.790Z,9.02
2023-04-09T18:40:15.954Z,7.90
2023-04-09T18:42:45.653Z,10.13
2023-04-09T18:45:13.729Z,10.00
2023-04-09T18:47:41.816Z,9.73
2023-04-09T18:50:10.633Z,10.63
2023-04-09T18:52:39.085Z,8.63
2023-04-09T18:55:08.316Z,9.10
2023-04-09T18:57:37.991Z,8.57
2023-04-09T19:00:09.075Z,8.80
2023-04-09T19:02:38.813Z,8.55
2023-04-09T19:05:08.051Z,9.40
2023-04-09T19:07:36.241Z,9.95
2023-04-09T19:10:04.522Z,18.30
2023-04-09T19:12:32.607Z,46.40
2023-04-09T19:15:02.037Z,76.20
2023-04-09T19:17:32.048Z,77.70
2023-04-09T19:20:00.429Z,51.25
2023-04-09T19:22:28.504Z,26.38
2023-04-09T19:24:56.653Z,16.27
2023-04-09T19:27:24.741Z,12.13
2023-04-09T19:29:53.244Z,11.43
2023-04-09T19:32:21.408Z,12.15
2023-04-09T19:34:51.044Z,13.20
2023-04-09T19:37:19.765Z,13.10
2023-04-09T19:39:47.833Z,15.50
2023-04-09T19:42:16.476Z,12.65
2023-04-09T19:44:44.658Z,13.20
2023-04-09T19:47:12.774Z,12.98
2023-04-09T19:49:41.743Z,14.65
2023-04-09T19:52:11.200Z,14.02
2023-04-09T19:54:39.291Z,16.92
2023-04-09T19:57:08.146Z,18.98
2023-04-09T19:59:39.750Z,21.60
2023-04-09T20:02:08.068Z,24.33
2023-04-09T20:04:36.490Z,22.73
2023-04-09T20:07:05.302Z,24.30
2023-04-09T20:09:34.763Z,27.48
2023-04-09T20:12:06.951Z,33.92
2023-04-09T20:14:35.065Z,34.13
2023-04-09T20:17:03.233Z,34.65
2023-04-09T20:19:31.537Z,39.50
2023-04-09T20:22:00.246Z,48.47
2023-04-09T20:24:28.496Z,34.45
2023-04-09T20:26:59.608Z,35.17
2023-04-09T20:29:28.014Z,51.70
2023-04-09T20:31:56.217Z,110.43
2023-04-09T20:34:26.931Z,93.68
2023-04-09T20:36:55.450Z,117.20
2023-04-09T20:39:25.049Z,106.30
2023-04-09T20:41:53.266Z,144.40
2023-04-09T20:44:22.827Z,172.80
2023-04-09T20:46:51.082Z,155.27
2023-04-09T20:49:19.252Z,135.45
2023-04-09T20:51:47.636Z,118.20
2023-04-09T20:54:18.008Z,119.25
2023-04-09T20:56:46.161Z,127.75
2023-04-09T20:59:14.235Z,138.35
2023-04-09T21:01:44.112Z,165.38
2023-04-09T21:04:12.803Z,151.23
2023-04-09T21:06:41.244Z,138.30
2023-04-09T21:09:09.338Z,158.52
2023-04-09T21:11:37.422Z,188.77
2023-04-09T21:14:06.952Z,224.68
2023-04-09T21:16:35.103Z,312.90
2023-04-09T21:19:07.247Z,283.27
2023-04-09T21:21:35.670Z,410.83
2023-04-09T21:24:03.916Z,394.75
2023-04-09T21:26:45.286Z,283.52
2023-04-09T21:29:18.771Z,161.10
2023-04-09T21:31:47.028Z,137.40
2023-04-09T21:34:16.670Z,116.15
2023-04-09T21:36:45.332Z,102.63
2023-04-09T21:39:13.742Z,117.97
2023-04-09T21:41:41.827Z,133.32
2023-04-09T21:44:10.004Z,111.20
2023-04-09T21:46:40.781Z,112.45
2023-04-09T21:49:09.129Z,189.43
2023-04-09T21:51:40.343Z,322.45
2023-04-09T21:54:09.779Z,263.75
2023-04-09T21:56:37.927Z,216.13
2023-04-09T21:59:06.220Z,298.67
2023-04-09T22:01:35.199Z,290.05
2023-04-09T22:04:04.075Z,243.75
2023-04-09T22:06:32.602Z,212.30
2023-04-09T22:09:02.324Z,203.20
2023-04-09T22:11:30.769Z,190.68
2023-04-09T22:13:59.134Z,183.27
2023-04-09T22:16:27.745Z,181.10
2023-04-09T22:18:56.390Z,154.93
2023-04-09T22:21:25.242Z,154.32
2023-04-09T22:23:53.335Z,152.00
2023-04-09T22:26:22.977Z,151.85
2023-04-09T22:28:51.636Z,152.98
2023-04-09T22:31:19.966Z,160.27
2023-04-09T22:33:48.107Z,167.18
2023-04-09T22:36:16.328Z,177.05
2023-04-09T22:38:44.420Z,157.98
2023-04-09T22:41:12.482Z,152.88
2023-04-09T22:43:41.959Z,151.40
2023-04-09T22:46:10.694Z,167.35
2023-04-09T22:48:44.530Z,159.40
2023-04-09T22:51:14.081Z,166.32
2023-04-09T22:53:42.306Z,167.25
2023-04-09T22:56:10.983Z,162.23
2023-04-09T22:58:41.218Z,160.25
2023-04-09T23:01:09.703Z,150.98
2023-04-09T23:03:37.890Z,157.52
2023-04-09T23:06:06.470Z,157.40
2023-04-09T23:08:35.074Z,154.13
2023-04-09T23:11:05.351Z,160.90
2023-04-09T23:13:33.510Z,153.85
2023-04-09T23:16:06.295Z,146.73
2023-04-09T23:18:35.821Z,152.82
2023-04-09T23:21:07.783Z,145.25
2023-04-09T23:23:36.254Z,149.82
2023-04-09T23:26:04.571Z,148.90
2023-04-09T23:28:32.930Z,161.57
2023-04-09T23:31:02.626Z,159.98
2023-04-09T23:33:30.887Z,163.55
2023-04-09T23:35:59.058Z,171.27
2023-04-09T23:38:27.251Z,164.65
2023-04-09T23:40:55.553Z,164.32
2023-04-09T23:43:23.692Z,169.57
2023-04-09T23:45:51.781Z,170.80
2023-04-09T23:48:21.620Z,168.57
2023-04-09T23:50:49.798Z,162.60
2023-04-09T23:53:17.940Z,168.40
2023-04-09T23:55:47.802Z,172.05
2023-04-09T23:58:16.028Z,170.27
